createdAt,value
2019-03-08T00:00:18.721Z,11.27
2019-03-08T00:02:47.683Z,9.03
2019-03-08T00:05:16.567Z,15.73
2019-03-08T00:07:45.294Z,15.77
2019-03-08T00:10:14.041Z,17.00
2019-03-08T00:12:42.807Z,16.23
2019-03-08T00:15:12.849Z,16.57
2019-03-08T00:17:41.491Z,15.73
2019-03-08T00:20:11.421Z,18.23
2019-03-08T00:22:40.258Z,15.47
2019-03-08T00:25:11.150Z,14.67
2019-03-08T00:27:39.931Z,13.07
2019-03-08T00:30:14.485Z,18.83
2019-03-08T00:32:43.613Z,11.00
2019-03-08T00:35:12.575Z,15.23
2019-03-08T00:37:41.343Z,18.00
2019-03-08T00:40:12.515Z,14.63
2019-03-08T00:42:41.173Z,15.17
2019-03-08T00:45:14.323Z,17.17
2019-03-08T00:47:43.635Z,15.53
2019-03-08T00:50:12.551Z,19.47
2019-03-08T00:52:41.331Z,12.50
2019-03-08T00:55:11.353Z,11.70
2019-03-08T00:57:39.969Z,17.87
2019-03-08T01:00:17.885Z,16.87
2019-03-08T01:02:46.738Z,14.13
2019-03-08T01:05:16.859Z,17.27
2019-03-08T01:07:45.909Z,19.70
2019-03-08T01:10:22.372Z,14.97
2019-03-08T01:12:51.134Z,18.13
2019-03-08T01:15:19.853Z,20.63
2019-03-08T01:17:48.587Z,17.93
2019-03-08T01:20:18.908Z,16.37
2019-03-08T01:22:47.742Z,22.53
2019-03-08T01:25:16.705Z,17.27
2019-03-08T01:28:11.802Z,14.03
2019-03-08T01:30:41.707Z,17.83
2019-03-08T01:33:10.757Z,13.03
2019-03-08T01:35:39.638Z,16.03
2019-03-08T01:38:08.697Z,12.87
2019-03-08T01:40:41.606Z,21.37
2019-03-08T01:43:13.300Z,15.77
2019-03-08T01:45:51.291Z,17.20
2019-03-08T01:48:22.931Z,17.20
2019-03-08T01:50:53.281Z,15.33
2019-03-08T01:53:48.975Z,12.70
2019-03-08T01:56:23.231Z,22.40
2019-03-08T01:58:52.207Z,18.70
2019-03-08T02:01:23.769Z,13.90
2019-03-08T02:03:54.189Z,16.90
2019-03-08T02:06:23.159Z,24.23
2019-03-08T02:08:52.006Z,23.27
2019-03-08T02:11:20.841Z,20.07
2019-03-08T02:13:49.603Z,24.00
2019-03-08T02:16:18.359Z,23.77
2019-03-08T02:18:47.161Z,18.20
2019-03-08T02:21:16.233Z,15.67
2019-03-08T02:23:45.030Z,19.73
2019-03-08T02:26:13.939Z,19.97
2019-03-08T02:28:42.846Z,14.63
2019-03-08T02:31:11.531Z,25.70
2019-03-08T02:33:40.293Z,18.83
2019-03-08T02:36:09.449Z,22.27
2019-03-08T02:38:38.323Z,4.93
2019-03-08T02:41:07.749Z,5.57
2019-03-08T02:43:36.581Z,6.23
2019-03-08T02:46:05.652Z,4.20
2019-03-08T02:48:34.332Z,2.60
2019-03-08T02:51:03.299Z,6.17
2019-03-08T02:53:32.170Z,3.80
2019-03-08T02:56:05.464Z,4.20
2019-03-08T02:58:34.232Z,4.53
2019-03-08T03:01:03.137Z,2.90
2019-03-08T03:03:32.095Z,2.63
2019-03-08T03:06:01.063Z,2.30
2019-03-08T03:08:30.053Z,4.53
2019-03-08T03:11:00.314Z,2.70
2019-03-08T03:13:29.229Z,2.23
2019-03-08T03:16:04.243Z,6.97
2019-03-08T03:18:37.723Z,3.13
2019-03-08T03:21:26.563Z,5.33
2019-03-08T03:23:57.227Z,5.10
2019-03-08T03:26:32.715Z,3.93
2019-03-08T03:29:03.201Z,6.40
2019-03-08T03:31:34.199Z,3.63
2019-03-08T03:37:48.105Z,7.23
2019-03-08T03:40:26.690Z,7.70
2019-03-08T03:43:11.026Z,8.40
2019-03-08T03:45:44.436Z,4.03
2019-03-08T04:06:30.523Z,7.33
2019-03-08T04:26:57.264Z,6.53
2019-03-08T04:29:25.810Z,8.13
2019-03-08T04:31:54.939Z,7.70
2019-03-08T04:34:25.415Z,7.30
2019-03-08T04:36:57.384Z,9.40
2019-03-08T04:39:30.758Z,9.93
2019-03-08T04:41:59.424Z,10.43
2019-03-08T04:44:28.377Z,8.23
2019-03-08T04:46:57.166Z,13.37
2019-03-08T04:49:28.172Z,12.30
2019-03-08T04:51:56.551Z,12.97
2019-03-08T04:54:27.420Z,8.67
2019-03-08T04:56:57.800Z,10.70
2019-03-08T04:59:26.674Z,11.73
2019-03-08T05:01:55.649Z,10.73
2019-03-08T05:04:24.525Z,9.00
2019-03-08T05:06:54.999Z,8.30
2019-03-08T05:09:23.969Z,16.97
2019-03-08T05:11:53.038Z,10.27
2019-03-08T05:14:24.456Z,12.23
2019-03-08T05:16:55.651Z,16.30
2019-03-08T05:19:24.588Z,16.43
2019-03-08T05:21:53.388Z,14.20
2019-03-08T05:24:22.321Z,16.37
2019-03-08T05:26:54.188Z,16.10
2019-03-08T05:29:24.362Z,14.60
2019-03-08T05:31:53.537Z,13.67
2019-03-08T05:34:22.539Z,17.37
2019-03-08T05:36:52.405Z,15.13
2019-03-08T05:39:21.502Z,14.80
2019-03-08T05:41:50.426Z,15.50
2019-03-08T05:44:19.391Z,13.93
2019-03-08T05:46:48.558Z,15.00
2019-03-08T05:49:17.631Z,14.53
2019-03-08T05:51:46.550Z,18.77
2019-03-08T05:54:15.400Z,14.70
2019-03-08T05:56:44.194Z,14.17
2019-03-08T05:59:12.980Z,15.80
2019-03-08T06:01:43.365Z,16.80
2019-03-08T06:04:12.132Z,17.63
2019-03-08T06:06:40.940Z,19.77
2019-03-08T06:09:10.101Z,15.47
2019-03-08T06:11:41.380Z,19.23
2019-03-08T06:14:10.442Z,14.30
2019-03-08T06:16:39.290Z,13.07
2019-03-08T06:19:08.150Z,19.83
2019-03-08T06:21:36.896Z,8.87
2019-03-08T06:24:29.994Z,13.83
2019-03-08T06:27:03.937Z,12.70
2019-03-08T06:29:32.690Z,8.83
2019-03-08T06:32:09.052Z,11.27
2019-03-08T06:34:53.068Z,12.80
2019-03-08T06:37:21.977Z,10.13
2019-03-08T06:39:53.736Z,12.20
2019-03-08T06:42:32.882Z,13.97
2019-03-08T06:45:31.264Z,14.87
2019-03-08T06:48:30.025Z,17.00
2019-03-08T06:54:14.601Z,15.10
2019-03-08T06:56:43.712Z,9.30
2019-03-08T06:59:16.070Z,15.13
2019-03-08T07:01:44.996Z,14.77
2019-03-08T07:04:15.078Z,10.87
2019-03-08T07:06:44.048Z,12.10
2019-03-08T07:09:12.895Z,14.10
2019-03-08T07:11:45.972Z,13.13
2019-03-08T07:14:15.282Z,11.33
2019-03-08T07:16:44.232Z,14.37
2019-03-08T07:19:13.668Z,12.73
2019-03-08T07:21:54.507Z,12.47
2019-03-08T07:24:32.913Z,12.70
2019-03-08T07:27:03.154Z,13.30
2019-03-08T07:29:51.610Z,10.77
2019-03-08T07:32:33.875Z,14.03
2019-03-08T07:35:22.798Z,14.73
2019-03-08T07:37:57.470Z,15.87
2019-03-08T07:40:36.818Z,14.83
2019-03-08T07:43:21.524Z,12.80
2019-03-08T07:46:11.549Z,11.13
2019-03-08T07:48:47.596Z,8.83
2019-03-08T07:51:20.628Z,12.77
2019-03-08T07:54:03.226Z,12.43
2019-03-08T07:56:39.196Z,10.03
2019-03-08T07:59:18.683Z,7.20
2019-03-08T08:01:49.150Z,11.67
2019-03-08T08:04:19.403Z,12.60
2019-03-08T08:06:49.752Z,13.60
2019-03-08T08:09:20.252Z,13.13
2019-03-08T08:11:58.394Z,10.73
2019-03-08T08:14:29.039Z,18.13
2019-03-08T08:17:03.045Z,13.03
2019-03-08T08:19:37.646Z,7.90
2019-03-08T08:22:12.286Z,14.60
2019-03-08T08:24:59.208Z,8.73
2019-03-08T08:27:32.183Z,10.30
2019-03-08T08:30:08.122Z,16.37
2019-03-08T08:32:47.836Z,15.17
2019-03-08T08:35:27.588Z,7.53
2019-03-08T08:38:13.271Z,8.27
2019-03-08T08:41:00.144Z,13.27
2019-03-08T08:43:30.542Z,15.43
2019-03-08T08:46:15.872Z,14.77
2019-03-08T08:48:37.916Z,11.83
2019-03-08T08:51:08.268Z,10.30
2019-03-08T08:53:39.071Z,13.03
2019-03-08T08:56:14.478Z,12.07
2019-03-08T08:58:51.927Z,13.87
2019-03-08T09:04:30.226Z,12.77
2019-03-08T09:07:17.256Z,13.80
2019-03-08T09:10:06.193Z,10.53
2019-03-08T09:12:37.508Z,9.37
2019-03-08T09:15:11.386Z,10.07
2019-03-08T09:17:59.906Z,12.90
2019-03-08T09:20:46.762Z,15.67
2019-03-08T09:23:33.326Z,11.50
2019-03-08T09:26:03.742Z,13.20
2019-03-08T09:28:40.048Z,13.33
2019-03-08T09:31:25.728Z,18.37
2019-03-08T09:34:01.754Z,11.23
2019-03-08T09:36:34.984Z,14.30
2019-03-08T09:39:06.097Z,22.80
2019-03-08T09:41:39.768Z,13.97
2019-03-08T09:44:22.432Z,11.00
2019-03-08T09:46:52.823Z,15.20
2019-03-08T09:49:25.835Z,13.13
2019-03-08T09:52:11.158Z,16.27
2019-03-08T09:55:01.158Z,12.20
2019-03-08T09:57:36.221Z,10.60
2019-03-08T10:00:29.072Z,17.27
2019-03-08T10:03:08.487Z,15.63
2019-03-08T10:05:57.009Z,8.27
2019-03-08T10:08:35.768Z,11.57
2019-03-08T10:11:22.438Z,8.37
2019-03-08T10:13:52.834Z,11.40
2019-03-08T10:16:24.914Z,15.53
2019-03-08T10:19:11.711Z,8.50
2019-03-08T10:21:44.959Z,12.33
2019-03-08T10:24:21.135Z,8.57
2019-03-08T10:26:57.347Z,15.57
2019-03-08T10:29:30.215Z,9.13
2019-03-08T10:32:00.639Z,10.37
2019-03-08T10:34:36.582Z,8.67
2019-03-08T10:37:06.863Z,10.90
2019-03-08T10:39:46.468Z,9.90
2019-03-08T10:42:19.844Z,8.33
2019-03-08T10:44:59.202Z,8.50
2019-03-08T10:47:41.772Z,10.07
2019-03-08T10:50:28.422Z,10.87
2019-03-08T10:53:14.228Z,6.77
2019-03-08T10:56:18.289Z,6.33
2019-03-08T10:58:57.420Z,9.07
2019-03-08T11:01:30.538Z,7.87
2019-03-08T11:04:01.000Z,7.93
2019-03-08T11:06:43.133Z,10.23
2019-03-08T11:09:22.012Z,8.77
2019-03-08T11:12:08.866Z,7.60
2019-03-08T11:17:50.557Z,11.83
2019-03-08T11:20:30.679Z,8.33
2019-03-08T11:23:17.314Z,10.37
2019-03-08T11:25:49.063Z,7.90
2019-03-08T11:28:22.401Z,8.53
2019-03-08T11:31:08.853Z,6.87
2019-03-08T11:33:44.822Z,6.67
2019-03-08T11:36:17.789Z,7.60
2019-03-08T11:39:04.649Z,12.17
2019-03-08T11:41:37.586Z,9.53
2019-03-08T11:44:10.885Z,10.93
2019-03-08T11:46:49.714Z,11.17
2019-03-08T11:49:20.074Z,10.83
2019-03-08T11:52:05.174Z,4.97
2019-03-08T11:54:41.064Z,9.27
2019-03-08T11:57:26.550Z,8.70
2019-03-08T12:00:06.551Z,12.17
2019-03-08T12:02:49.002Z,12.63
2019-03-08T12:05:19.389Z,11.27
2019-03-08T12:07:52.310Z,15.23
2019-03-08T12:10:31.395Z,11.80
2019-03-08T12:13:01.712Z,9.33
2019-03-08T12:15:40.809Z,9.87
2019-03-08T12:18:13.766Z,13.00
2019-03-08T12:20:47.182Z,12.83
2019-03-08T12:23:17.598Z,7.47
2019-03-08T12:25:53.616Z,11.33
2019-03-08T12:28:24.050Z,9.83
2019-03-08T12:31:10.393Z,11.10
2019-03-08T12:33:57.828Z,8.97
2019-03-08T12:36:28.224Z,10.30
2019-03-08T12:39:13.716Z,10.63
2019-03-08T12:41:44.085Z,9.40
2019-03-08T12:44:16.632Z,6.67
2019-03-08T12:46:50.032Z,10.73
2019-03-08T12:49:37.036Z,9.40
2019-03-08T12:52:19.193Z,4.53
2019-03-08T12:54:49.450Z,6.43
2019-03-08T12:57:31.452Z,9.03
2019-03-08T13:00:19.977Z,6.50
2019-03-08T13:03:06.501Z,10.70
2019-03-08T13:05:53.046Z,8.43
2019-03-08T13:08:39.841Z,9.03
2019-03-08T13:11:08.597Z,9.47
2019-03-08T13:13:37.424Z,11.40
2019-03-08T13:16:06.244Z,4.40
2019-03-08T13:18:35.032Z,7.50
2019-03-08T13:21:03.827Z,9.07
2019-03-08T13:23:32.543Z,12.47
2019-03-08T13:26:01.305Z,11.13
2019-03-08T13:28:30.102Z,15.07
2019-03-08T13:30:59.032Z,10.67
2019-03-08T13:33:27.773Z,13.73
2019-03-08T13:35:56.459Z,10.73
2019-03-08T13:38:25.232Z,16.10
2019-03-08T13:40:54.057Z,9.00
2019-03-08T13:43:22.797Z,8.30
2019-03-08T13:45:51.606Z,11.07
2019-03-08T13:48:20.275Z,8.87
2019-03-08T13:50:48.880Z,8.20
2019-03-08T13:53:17.685Z,8.40
2019-03-08T13:55:46.543Z,9.37
2019-03-08T13:58:15.169Z,10.03
2019-03-08T14:00:44.085Z,4.77
2019-03-08T14:03:15.257Z,9.80
2019-03-08T14:05:44.051Z,9.93
2019-03-08T14:08:12.721Z,6.17
2019-03-08T14:10:41.395Z,9.03
2019-03-08T14:13:10.039Z,7.73
2019-03-08T14:15:38.920Z,10.87
2019-03-08T14:18:07.534Z,7.27
2019-03-08T14:20:36.253Z,9.53
2019-03-08T14:23:05.085Z,9.33
2019-03-08T14:25:33.831Z,10.97
2019-03-08T14:28:02.611Z,13.17
2019-03-08T14:30:38.908Z,13.87
2019-03-08T14:33:07.566Z,11.30
2019-03-08T14:35:36.181Z,12.23
2019-03-08T14:38:05.011Z,11.90
2019-03-08T14:40:35.303Z,11.50
2019-03-08T14:43:17.055Z,20.00
2019-03-08T14:45:49.315Z,11.63
2019-03-08T14:48:18.139Z,15.80
2019-03-08T14:50:46.916Z,10.53
2019-03-08T14:53:16.003Z,12.83
2019-03-08T14:55:44.853Z,11.90
2019-03-08T14:58:17.740Z,15.10
2019-03-08T15:00:50.841Z,17.53
2019-03-08T15:03:20.247Z,14.80
2019-03-08T15:05:55.089Z,22.30
2019-03-08T15:08:24.667Z,19.17
2019-03-08T15:10:53.423Z,13.87
2019-03-08T15:13:24.268Z,12.47
2019-03-08T15:15:52.591Z,10.67
2019-03-08T15:18:29.583Z,11.60
2019-03-08T15:20:58.575Z,14.40
2019-03-08T15:23:54.491Z,13.40
2019-03-08T15:26:22.387Z,18.40
2019-03-08T15:28:51.147Z,14.23
2019-03-08T15:31:21.521Z,14.47
2019-03-08T15:33:50.366Z,15.67
2019-03-08T15:36:22.196Z,17.40
2019-03-08T15:38:58.750Z,15.50
2019-03-08T15:41:27.910Z,10.40
2019-03-08T15:44:01.184Z,10.10
2019-03-08T15:46:31.497Z,12.97
2019-03-08T15:49:00.507Z,14.27
2019-03-08T15:51:31.797Z,17.37
2019-03-08T15:54:00.615Z,10.90
2019-03-08T15:56:39.279Z,14.80
2019-03-08T15:59:09.705Z,15.77
2019-03-08T16:01:44.210Z,18.60
2019-03-08T16:04:15.958Z,12.77
2019-03-08T16:06:47.766Z,9.77
2019-03-08T16:09:16.644Z,13.53
2019-03-08T16:11:53.331Z,13.87
2019-03-08T16:14:22.201Z,12.30
2019-03-08T16:16:50.863Z,10.07
2019-03-08T16:19:24.791Z,13.73
2019-03-08T16:21:55.441Z,14.37
2019-03-08T16:24:30.663Z,14.13
2019-03-08T16:26:58.715Z,10.53
2019-03-08T16:29:28.052Z,16.17
2019-03-08T16:32:00.093Z,18.77
2019-03-08T16:34:28.786Z,11.73
2019-03-08T16:36:58.992Z,12.17
2019-03-08T16:39:32.091Z,14.23
2019-03-08T16:42:14.325Z,16.37
2019-03-08T16:44:53.066Z,16.67
2019-03-08T16:47:29.123Z,16.03
2019-03-08T16:49:59.231Z,16.20
2019-03-08T16:52:43.285Z,11.77
2019-03-08T16:55:21.441Z,14.23
2019-03-08T16:57:57.456Z,18.83
2019-03-08T17:00:40.534Z,14.20
2019-03-08T17:03:24.561Z,12.20
2019-03-08T17:05:55.043Z,15.73
2019-03-08T17:08:25.405Z,15.90
2019-03-08T17:11:12.277Z,10.00
2019-03-08T17:13:42.577Z,18.02
2019-03-08T17:16:28.867Z,12.93
2019-03-08T17:19:11.718Z,25.33
2019-03-08T17:21:40.048Z,14.17
2019-03-08T17:24:13.235Z,13.53
2019-03-08T17:26:49.728Z,13.67
2019-03-08T17:29:36.293Z,17.00
2019-03-08T17:32:09.401Z,20.30
2019-03-08T17:34:51.838Z,20.03
2019-03-08T17:37:28.009Z,16.60
2019-03-08T17:39:58.491Z,12.80
2019-03-08T17:42:34.391Z,9.90
2019-03-08T17:45:13.784Z,16.73
2019-03-08T17:47:50.223Z,8.50
2019-03-08T17:50:29.706Z,8.40
2019-03-08T18:02:38.607Z,12.50
2019-03-08T18:08:53.247Z,14.50
2019-03-08T18:11:52.983Z,10.03
2019-03-08T18:14:32.770Z,13.80
2019-03-08T18:17:17.835Z,7.00
2019-03-08T18:23:02.805Z,7.17
2019-03-08T18:25:42.635Z,8.83
2019-03-08T18:34:34.309Z,10.17
2019-03-08T18:37:05.681Z,15.73
2019-03-08T18:39:44.917Z,12.97
2019-03-08T18:42:33.647Z,18.87
2019-03-08T18:48:12.446Z,11.53
2019-03-08T18:50:54.844Z,17.50
2019-03-08T18:53:30.653Z,18.67
2019-03-08T18:56:04.326Z,17.60
2019-03-08T18:58:37.302Z,10.77
2019-03-08T19:01:23.097Z,16.93
2019-03-08T19:04:02.358Z,16.63
2019-03-08T19:06:38.903Z,15.33
2019-03-08T19:09:21.904Z,16.93
2019-03-08T19:11:52.453Z,15.93
2019-03-08T19:14:38.088Z,19.77
2019-03-08T19:17:12.258Z,13.27
2019-03-08T19:19:45.399Z,17.60
2019-03-08T19:22:31.226Z,14.07
2019-03-08T19:25:04.191Z,10.83
2019-03-08T19:27:41.890Z,16.17
2019-03-08T19:30:27.505Z,15.77
2019-03-08T19:32:57.923Z,13.50
2019-03-08T19:35:40.663Z,16.00
2019-03-08T19:38:26.207Z,21.73
2019-03-08T19:41:12.940Z,29.13
2019-03-08T19:43:43.247Z,21.63
2019-03-08T19:46:28.385Z,18.63
2019-03-08T19:49:15.236Z,22.93
2019-03-08T19:51:48.393Z,15.77
2019-03-08T19:54:27.353Z,16.87
2019-03-08T19:57:14.231Z,18.07
2019-03-08T20:00:02.907Z,19.07
2019-03-08T20:06:20.529Z,11.60
2019-03-08T20:09:02.793Z,7.23
2019-03-08T20:11:36.817Z,12.50
2019-03-08T20:14:16.022Z,8.20
2019-03-08T20:17:02.545Z,12.53
2019-03-08T20:19:35.973Z,10.07
2019-03-08T20:22:16.873Z,13.30
2019-03-08T20:24:50.379Z,12.87
2019-03-08T20:27:42.441Z,13.23
2019-03-08T20:30:17.305Z,15.13
2019-03-08T20:33:05.265Z,17.07
2019-03-08T20:35:51.961Z,12.90
2019-03-08T20:41:25.274Z,10.40
2019-03-08T20:44:01.143Z,10.20
2019-03-08T20:46:31.444Z,13.43
2019-03-08T20:49:00.139Z,13.87
2019-03-08T20:51:28.755Z,7.70
2019-03-08T20:53:57.474Z,16.00
2019-03-08T20:56:26.230Z,14.07
2019-03-08T20:58:55.224Z,11.33
2019-03-08T21:01:24.192Z,13.63
2019-03-08T21:03:52.951Z,18.23
2019-03-08T21:06:21.819Z,21.20
2019-03-08T21:08:50.631Z,11.93
2019-03-08T21:11:19.521Z,11.63
2019-03-08T21:13:48.323Z,9.43
2019-03-08T21:16:17.171Z,16.13
2019-03-08T21:18:45.745Z,12.40
2019-03-08T21:21:14.430Z,10.97
2019-03-08T21:23:43.088Z,9.67
2019-03-08T21:26:11.804Z,9.87
2019-03-08T21:28:40.778Z,8.90
2019-03-08T21:31:09.480Z,14.83
2019-03-08T21:33:38.184Z,9.77
2019-03-08T21:36:07.004Z,11.20
2019-03-08T21:38:35.802Z,11.60
2019-03-08T21:41:04.657Z,14.20
2019-03-08T21:43:34.908Z,10.03
2019-03-08T21:46:03.715Z,11.37
2019-03-08T21:48:45.191Z,10.90
2019-03-08T21:51:13.950Z,11.57
2019-03-08T21:53:42.969Z,12.90
2019-03-08T21:56:12.388Z,9.73
2019-03-08T21:58:41.190Z,10.37
2019-03-08T22:01:10.179Z,8.93
2019-03-08T22:03:39.040Z,12.40
2019-03-08T22:06:09.948Z,16.57
2019-03-08T22:08:40.344Z,14.37
2019-03-08T22:11:10.916Z,11.33
2019-03-08T22:13:39.730Z,14.67
2019-03-08T22:16:08.840Z,16.33
2019-03-08T22:18:39.240Z,11.20
2019-03-08T22:21:08.228Z,8.67
2019-03-08T22:23:37.219Z,13.47
2019-03-08T22:26:06.883Z,11.53
2019-03-08T22:28:36.029Z,5.23
2019-03-08T22:31:05.354Z,6.53
2019-03-08T22:33:34.250Z,10.93
2019-03-08T22:36:07.417Z,9.33
2019-03-08T22:38:36.288Z,9.70
2019-03-08T22:41:09.366Z,13.13
2019-03-08T22:43:38.211Z,12.57
2019-03-08T22:46:11.100Z,8.63
2019-03-08T22:48:39.308Z,11.30
2019-03-08T22:51:08.134Z,9.27
2019-03-08T22:53:36.987Z,7.97
2019-03-08T22:56:05.952Z,9.00
2019-03-08T22:58:34.942Z,16.40
2019-03-08T23:01:07.188Z,13.70
2019-03-08T23:03:38.058Z,6.70
2019-03-08T23:06:06.925Z,11.33
2019-03-08T23:08:38.348Z,10.17
2019-03-08T23:11:07.111Z,14.73
2019-03-08T23:13:35.934Z,11.93
2019-03-08T23:16:04.999Z,10.50
2019-03-08T23:18:33.994Z,10.07
2019-03-08T23:21:02.908Z,8.33
2019-03-08T23:23:31.813Z,11.70
2019-03-08T23:26:00.755Z,14.50
2019-03-08T23:28:38.496Z,8.23
2019-03-08T23:31:18.466Z,7.33
2019-03-08T23:33:47.190Z,11.53
2019-03-08T23:36:16.020Z,15.37
2019-03-08T23:38:44.586Z,9.17
2019-03-08T23:41:13.472Z,12.60
2019-03-08T23:43:42.200Z,7.47
2019-03-08T23:46:10.906Z,10.60
2019-03-08T23:48:39.588Z,13.37
2019-03-08T23:51:08.234Z,8.57
2019-03-08T23:53:36.908Z,11.10
2019-03-08T23:56:05.971Z,16.07
2019-03-08T23:58:34.768Z,14.33
